createdAt,value
2018-07-02T00:00:12.984Z,16.66
2018-07-02T00:00:53.536Z,16.65
2018-07-02T00:01:34.100Z,16.64
2018-07-02T00:02:14.663Z,16.69
2018-07-02T00:02:55.218Z,16.65
2018-07-02T00:03:35.778Z,16.61
2018-07-02T00:04:16.355Z,16.64
2018-07-02T00:04:56.920Z,16.64
2018-07-02T00:05:37.502Z,16.54
2018-07-02T00:06:18.044Z,16.61
2018-07-02T00:06:58.611Z,16.54
2018-07-02T00:07:39.167Z,16.6
2018-07-02T00:08:19.750Z,16.61
2018-07-02T00:09:00.318Z,16.56
2018-07-02T00:09:40.895Z,16.6
2018-07-02T00:10:21.459Z,16.53
2018-07-02T00:11:02.009Z,16.54
2018-07-02T00:11:42.554Z,16.54
2018-07-02T00:12:23.124Z,16.56
2018-07-02T00:13:03.679Z,16.56
2018-07-02T00:13:44.236Z,16.57
2018-07-02T00:14:24.783Z,16.54
2018-07-02T00:15:05.348Z,16.47
2018-07-02T00:15:45.916Z,16.57
2018-07-02T00:16:26.497Z,16.53
2018-07-02T00:17:07.076Z,16.47
2018-07-02T00:17:47.624Z,16.53
2018-07-02T00:18:28.177Z,16.46
2018-07-02T00:19:08.740Z,16.51
2018-07-02T00:19:49.281Z,16.49
2018-07-02T00:20:29.840Z,16.47
2018-07-02T00:21:10.427Z,16.5
2018-07-02T00:21:50.977Z,16.43
2018-07-02T00:22:31.547Z,16.47
2018-07-02T00:23:12.111Z,16.35
2018-07-02T00:23:52.672Z,16.47
2018-07-02T00:24:33.224Z,16.43
2018-07-02T00:25:13.818Z,16.43
2018-07-02T00:25:54.426Z,16.42
2018-07-02T00:26:34.947Z,16.41
2018-07-02T00:27:15.506Z,16.33
2018-07-02T00:27:56.066Z,16.35
2018-07-02T00:28:36.649Z,16.33
2018-07-02T00:29:17.196Z,16.32
2018-07-02T00:29:57.768Z,16.32
2018-07-02T00:30:38.331Z,16.29
2018-07-02T00:31:18.909Z,16.29
2018-07-02T00:31:59.483Z,16.31
2018-07-02T00:32:40.025Z,16.33
2018-07-02T00:33:20.582Z,16.32
2018-07-02T00:34:01.133Z,16.33
2018-07-02T00:34:41.690Z,16.33
2018-07-02T00:35:22.229Z,16.32
2018-07-02T00:36:02.782Z,16.26
2018-07-02T00:36:43.340Z,16.28
2018-07-02T00:37:23.899Z,16.17
2018-07-02T00:38:04.458Z,16.21
2018-07-02T00:38:45.026Z,16.21
2018-07-02T00:39:25.618Z,16.16
2018-07-02T00:40:06.182Z,16.13
2018-07-02T00:40:46.743Z,16.12
2018-07-02T00:41:27.319Z,16.13
2018-07-02T00:42:07.892Z,16.09
2018-07-02T00:42:48.465Z,16.13
2018-07-02T00:43:29.015Z,16.08
2018-07-02T00:44:09.575Z,16.08
2018-07-02T00:44:50.123Z,16.13
2018-07-02T00:45:30.686Z,16.13
2018-07-02T00:46:11.242Z,16.08
2018-07-02T00:46:51.797Z,16.13
2018-07-02T00:47:32.352Z,16.12
2018-07-02T00:48:12.915Z,16.04
2018-07-02T00:48:53.480Z,16.1
2018-07-02T00:49:36.858Z,16.02
2018-07-02T00:50:17.421Z,16
2018-07-02T00:50:57.982Z,16.01
2018-07-02T00:51:38.545Z,16.15
2018-07-02T00:52:19.119Z,16.12
2018-07-02T00:52:59.678Z,16.04
2018-07-02T00:53:40.240Z,16.05
2018-07-02T00:54:20.795Z,16.02
2018-07-02T00:55:01.355Z,16.09
2018-07-02T00:55:41.915Z,16.09
2018-07-02T00:56:22.473Z,16.09
2018-07-02T00:57:03.054Z,16.08
2018-07-02T00:57:43.634Z,16.12
2018-07-02T00:58:24.219Z,16.08
2018-07-02T00:59:04.779Z,16.04
2018-07-02T00:59:45.343Z,16.1
2018-07-02T01:00:25.883Z,16.1
2018-07-02T01:01:06.452Z,16.09
2018-07-02T01:01:46.992Z,16.05
2018-07-02T01:02:27.554Z,16.13
2018-07-02T01:03:08.138Z,16.09
2018-07-02T01:03:48.688Z,16.12
2018-07-02T01:04:29.263Z,16.09
2018-07-02T01:05:09.835Z,16.08
2018-07-02T01:05:50.390Z,16.13
2018-07-02T01:06:30.946Z,16.05
2018-07-02T01:07:11.495Z,16.08
2018-07-02T01:07:52.045Z,16.13
2018-07-02T01:08:32.601Z,16.13
2018-07-02T01:09:13.193Z,16.05
2018-07-02T01:09:53.752Z,16.04
2018-07-02T01:10:34.319Z,16.08
2018-07-02T01:11:14.886Z,16.13
2018-07-02T01:11:55.450Z,16.1
2018-07-02T01:12:36.008Z,16.05
2018-07-02T01:13:16.558Z,16.08
2018-07-02T01:13:57.126Z,16.1
2018-07-02T01:14:37.675Z,16.13
2018-07-02T01:15:18.249Z,16.09
2018-07-02T01:15:58.821Z,16.12
2018-07-02T01:16:39.375Z,16.09
2018-07-02T01:17:19.942Z,16.08
2018-07-02T01:18:00.498Z,16.1
2018-07-02T01:18:41.062Z,16.08
2018-07-02T01:19:21.633Z,16.09
2018-07-02T01:20:02.218Z,16.09
2018-07-02T01:20:42.788Z,16.09
2018-07-02T01:21:23.368Z,16.13
2018-07-02T01:22:03.919Z,15.98
2018-07-02T01:22:44.483Z,16.12
2018-07-02T01:23:25.051Z,16.01
2018-07-02T01:24:05.611Z,16.05
2018-07-02T01:24:46.185Z,16.01
2018-07-02T01:25:26.760Z,16.01
2018-07-02T01:26:07.323Z,16.01
2018-07-02T01:26:47.890Z,16
2018-07-02T01:27:28.448Z,16.02
2018-07-02T01:28:09.008Z,15.97
2018-07-02T01:28:49.577Z,16.04
2018-07-02T01:29:30.138Z,16.04
2018-07-02T01:30:10.707Z,15.95
2018-07-02T01:30:51.274Z,16.01
2018-07-02T01:31:31.816Z,15.94
2018-07-02T01:32:12.369Z,16.05
2018-07-02T01:32:52.933Z,16.01
2018-07-02T01:33:33.482Z,15.94
2018-07-02T01:34:14.034Z,15.98
2018-07-02T01:34:54.581Z,16.04
2018-07-02T01:35:35.141Z,15.98
2018-07-02T01:36:15.776Z,16.01
2018-07-02T01:36:56.296Z,15.94
2018-07-02T01:37:36.864Z,15.95
2018-07-02T01:38:17.426Z,15.91
2018-07-02T01:38:58.002Z,15.98
2018-07-02T01:39:38.550Z,16.01
2018-07-02T01:40:19.111Z,15.95
2018-07-02T01:40:59.680Z,15.86
2018-07-02T01:41:40.240Z,15.9
2018-07-02T01:42:20.805Z,15.92
2018-07-02T01:43:01.371Z,15.9
2018-07-02T01:43:41.950Z,15.92
2018-07-02T01:44:22.515Z,15.83
2018-07-02T01:45:03.084Z,15.84
2018-07-02T01:45:43.644Z,15.82
2018-07-02T01:46:24.214Z,15.83
2018-07-02T01:47:04.781Z,15.91
2018-07-02T01:47:45.396Z,15.86
2018-07-02T01:48:25.995Z,15.84
2018-07-02T01:49:06.552Z,15.92
2018-07-02T01:49:47.119Z,15.92
2018-07-02T01:50:27.677Z,15.82
2018-07-02T01:51:08.235Z,15.9
2018-07-02T01:51:48.823Z,15.83
2018-07-02T01:52:29.384Z,15.84
2018-07-02T01:53:09.966Z,15.86
2018-07-02T01:53:50.528Z,15.88
2018-07-02T01:54:31.099Z,15.9
2018-07-02T01:55:11.672Z,15.92
2018-07-02T01:55:52.240Z,15.98
2018-07-02T01:56:32.801Z,15.92
2018-07-02T01:57:13.365Z,15.95
2018-07-02T01:57:53.925Z,15.92
2018-07-02T01:58:34.510Z,15.9
2018-07-02T01:59:15.061Z,15.79
2018-07-02T01:59:55.640Z,15.84
2018-07-02T02:00:36.202Z,15.88
2018-07-02T02:01:16.759Z,15.91
2018-07-02T02:01:57.325Z,15.73
2018-07-02T02:02:37.887Z,15.9
2018-07-02T02:03:18.456Z,15.83
2018-07-02T02:03:59.007Z,15.94
2018-07-02T02:04:39.578Z,15.88
2018-07-02T02:05:20.141Z,15.88
2018-07-02T02:06:00.717Z,15.8
2018-07-02T02:06:41.280Z,15.95
2018-07-02T02:07:21.845Z,15.86
2018-07-02T02:08:02.416Z,15.79
2018-07-02T02:08:42.980Z,15.83
2018-07-02T02:09:23.552Z,15.86
2018-07-02T02:10:04.113Z,15.84
2018-07-02T02:10:44.678Z,15.83
2018-07-02T02:11:25.241Z,15.75
2018-07-02T02:12:05.790Z,15.82
2018-07-02T02:12:46.352Z,15.84
2018-07-02T02:13:26.920Z,15.84
2018-07-02T02:14:07.479Z,15.82
2018-07-02T02:14:48.050Z,15.84
2018-07-02T02:15:28.620Z,15.9
2018-07-02T02:16:09.185Z,15.83
2018-07-02T02:16:49.723Z,15.91
2018-07-02T02:17:30.291Z,15.86
2018-07-02T02:18:10.837Z,15.82
2018-07-02T02:18:51.411Z,15.88
2018-07-02T02:19:31.971Z,15.92
2018-07-02T02:20:12.537Z,15.86
2018-07-02T02:20:53.096Z,15.95
2018-07-02T02:21:33.662Z,15.91
2018-07-02T02:22:14.228Z,15.98
2018-07-02T02:22:54.808Z,16.04
2018-07-02T02:23:35.336Z,16.02
2018-07-02T02:24:15.905Z,16.01
2018-07-02T02:24:56.475Z,16.01
2018-07-02T02:25:37.018Z,16.1
2018-07-02T02:26:17.584Z,16.08
2018-07-02T02:26:58.149Z,16
2018-07-02T02:27:38.725Z,16.02
2018-07-02T02:28:19.285Z,16.01
2018-07-02T02:28:59.853Z,16.09
2018-07-02T02:29:40.419Z,16.1
2018-07-02T02:30:20.972Z,16.02
2018-07-02T02:31:01.524Z,16.08
2018-07-02T02:31:42.087Z,16.09
2018-07-02T02:32:22.644Z,16.13
2018-07-02T02:33:03.206Z,16.13
2018-07-02T02:33:43.786Z,16.15
2018-07-02T02:34:24.334Z,16.09
2018-07-02T02:35:04.901Z,16.15
2018-07-02T02:35:45.451Z,16.13
2018-07-02T02:36:26.011Z,16.1
2018-07-02T02:37:06.566Z,16.12
2018-07-02T02:37:47.125Z,16.15
2018-07-02T02:38:27.770Z,16.08
2018-07-02T02:39:08.248Z,16.02
2018-07-02T02:39:48.813Z,16.08
2018-07-02T02:40:29.381Z,16.04
2018-07-02T02:41:09.941Z,16.09
2018-07-02T02:41:50.513Z,15.97
2018-07-02T02:42:31.063Z,16.08
2018-07-02T02:43:11.628Z,16
2018-07-02T02:43:52.179Z,16.05
2018-07-02T02:44:32.746Z,16.05
2018-07-02T02:45:13.335Z,16.1
2018-07-02T02:45:53.902Z,16.15
2018-07-02T02:46:34.465Z,16.09
2018-07-02T02:47:15.041Z,16.17
2018-07-02T02:47:55.600Z,16.2
2018-07-02T02:48:36.154Z,16.26
2018-07-02T02:49:16.722Z,16.12
2018-07-02T02:49:57.278Z,16.16
2018-07-02T02:50:37.845Z,16.21
2018-07-02T02:51:18.404Z,16.17
2018-07-02T02:51:58.967Z,16.16
2018-07-02T02:52:39.532Z,16.23
2018-07-02T02:53:20.081Z,16.13
2018-07-02T02:54:00.651Z,16.09
2018-07-02T02:54:41.224Z,16.08
2018-07-02T02:55:21.786Z,16.08
2018-07-02T02:56:02.356Z,16.04
2018-07-02T02:56:42.920Z,16.1
2018-07-02T02:57:23.485Z,16.16
2018-07-02T02:58:04.059Z,16.21
2018-07-02T02:58:44.628Z,16.23
2018-07-02T02:59:25.195Z,16.24
2018-07-02T03:00:05.778Z,16.26
2018-07-02T03:00:46.332Z,16.23
2018-07-02T03:01:26.904Z,16.24
2018-07-02T03:02:07.474Z,16.21
2018-07-02T03:02:48.040Z,16.21
2018-07-02T03:03:28.613Z,16.24
2018-07-02T03:04:09.175Z,16.2
2018-07-02T03:04:49.748Z,16.16
2018-07-02T03:05:30.316Z,16.15
2018-07-02T03:06:10.873Z,16.15
2018-07-02T03:06:51.438Z,16.2
2018-07-02T03:07:32.003Z,16.23
2018-07-02T03:08:12.580Z,16.13
2018-07-02T03:08:53.132Z,16.09
2018-07-02T03:09:33.719Z,16.1
2018-07-02T03:10:14.272Z,16.04
2018-07-02T03:10:54.826Z,16.1
2018-07-02T03:11:35.380Z,16.04
2018-07-02T03:12:15.940Z,16.05
2018-07-02T03:12:56.503Z,16.05
2018-07-02T03:13:37.075Z,16.13
2018-07-02T03:14:17.629Z,16
2018-07-02T03:14:58.205Z,16.01
2018-07-02T03:15:38.756Z,16.01
2018-07-02T03:16:19.314Z,15.98
2018-07-02T03:16:59.860Z,16.01
2018-07-02T03:17:40.424Z,15.94
2018-07-02T03:18:21.006Z,15.94
2018-07-02T03:19:01.584Z,16.02
2018-07-02T03:19:42.156Z,16.04
2018-07-02T03:20:22.777Z,16.04
2018-07-02T03:21:03.292Z,16.02
2018-07-02T03:21:43.822Z,16.02
2018-07-02T03:22:24.372Z,16.1
2018-07-02T03:23:04.918Z,16.02
2018-07-02T03:23:45.469Z,16.08
2018-07-02T03:24:26.034Z,16.09
2018-07-02T03:25:06.569Z,16.05
2018-07-02T03:25:47.123Z,16.02
2018-07-02T03:26:27.667Z,16
2018-07-02T03:27:08.248Z,16
2018-07-02T03:27:48.815Z,15.95
2018-07-02T03:28:29.369Z,16.04
2018-07-02T03:29:09.939Z,16.08
2018-07-02T03:29:50.515Z,16.01
2018-07-02T03:30:31.074Z,16.1
2018-07-02T03:31:11.635Z,16.08
2018-07-02T03:31:52.181Z,16.01
2018-07-02T03:32:32.726Z,16.01
2018-07-02T03:33:13.281Z,15.97
2018-07-02T03:33:53.879Z,15.97
2018-07-02T03:34:34.450Z,15.94
2018-07-02T03:35:15.025Z,15.9
2018-07-02T03:35:55.591Z,15.86
2018-07-02T03:36:36.135Z,15.88
2018-07-02T03:37:16.714Z,15.82
2018-07-02T03:37:57.278Z,15.8
2018-07-02T03:38:37.846Z,15.8
2018-07-02T03:39:18.425Z,15.83
2018-07-02T03:39:58.961Z,15.84
2018-07-02T03:40:39.530Z,15.82
2018-07-02T03:41:20.087Z,15.92
2018-07-02T03:42:00.642Z,15.9
2018-07-02T03:42:41.207Z,15.83
2018-07-02T03:43:21.768Z,15.95
2018-07-02T03:44:02.353Z,15.92
2018-07-02T03:44:42.913Z,16.01
2018-07-02T03:45:23.480Z,15.98
2018-07-02T03:46:04.041Z,16.12
2018-07-02T03:46:44.602Z,16
2018-07-02T03:47:25.144Z,16.05
2018-07-02T03:48:05.696Z,16.04
2018-07-02T03:48:46.297Z,16.02
2018-07-02T03:49:26.864Z,16.09
2018-07-02T03:50:07.427Z,16.12
2018-07-02T03:50:47.994Z,16.09
2018-07-02T03:51:28.555Z,16.13
2018-07-02T03:52:09.137Z,16.23
2018-07-02T03:52:49.665Z,16.13
2018-07-02T03:53:30.221Z,16.1
2018-07-02T03:54:10.797Z,16.09
2018-07-02T03:54:51.380Z,16
2018-07-02T03:55:31.931Z,16
2018-07-02T03:56:12.498Z,16.02
2018-07-02T03:56:53.056Z,16
2018-07-02T03:57:33.606Z,16.02
2018-07-02T03:58:14.171Z,16.04
2018-07-02T03:58:54.723Z,15.95
2018-07-02T03:59:35.272Z,16
2018-07-02T04:00:15.842Z,16.01
2018-07-02T04:00:56.414Z,15.97
2018-07-02T04:01:36.976Z,15.97
2018-07-02T04:02:17.545Z,15.91
2018-07-02T04:02:58.123Z,15.97
2018-07-02T04:03:38.666Z,15.86
2018-07-02T04:04:19.216Z,15.98
2018-07-02T04:04:59.811Z,15.98
2018-07-02T04:05:40.401Z,16.02
2018-07-02T04:06:20.951Z,16.01
2018-07-02T04:07:01.508Z,16.02
2018-07-02T04:07:42.069Z,15.98
2018-07-02T04:08:22.626Z,16
2018-07-02T04:09:03.172Z,16.02
2018-07-02T04:09:43.721Z,16.01
2018-07-02T04:10:24.283Z,15.95
2018-07-02T04:11:04.854Z,15.95
2018-07-02T04:11:45.418Z,15.92
2018-07-02T04:12:26.012Z,15.83
2018-07-02T04:13:06.642Z,15.92
2018-07-02T04:13:47.142Z,15.94
2018-07-02T04:14:27.712Z,15.77
2018-07-02T04:15:08.286Z,15.77
2018-07-02T04:15:48.887Z,15.9
2018-07-02T04:16:29.413Z,15.76
2018-07-02T04:17:09.977Z,15.77
2018-07-02T04:17:50.558Z,15.76
2018-07-02T04:18:31.099Z,15.72
2018-07-02T04:19:11.730Z,15.67
2018-07-02T04:19:52.328Z,15.7
2018-07-02T04:20:32.904Z,15.62
2018-07-02T04:21:13.457Z,15.72
2018-07-02T04:21:54.014Z,15.62
2018-07-02T04:22:34.584Z,15.62
2018-07-02T04:23:15.145Z,15.58
2018-07-02T04:23:55.720Z,15.61
2018-07-02T04:24:36.284Z,15.57
2018-07-02T04:25:16.846Z,15.57
2018-07-02T04:25:57.412Z,15.55
2018-07-02T04:26:37.973Z,15.57
2018-07-02T04:27:18.547Z,15.55
2018-07-02T04:27:59.114Z,15.57
2018-07-02T04:28:39.672Z,15.58
2018-07-02T04:29:20.259Z,15.59
2018-07-02T04:30:00.806Z,15.61
2018-07-02T04:30:41.353Z,15.59
2018-07-02T04:31:21.924Z,15.58
2018-07-02T04:32:02.483Z,15.58
2018-07-02T04:32:43.083Z,15.52
2018-07-02T04:33:23.613Z,15.55
2018-07-02T04:34:04.184Z,15.52
2018-07-02T04:34:44.750Z,15.54
2018-07-02T04:35:25.308Z,15.49
2018-07-02T04:36:05.889Z,15.55
2018-07-02T04:36:46.443Z,15.52
2018-07-02T04:37:27.085Z,15.62
2018-07-02T04:38:07.641Z,15.59
2018-07-02T04:38:48.206Z,15.55
2018-07-02T04:39:28.779Z,15.55
2018-07-02T04:40:09.363Z,15.54
2018-07-02T04:40:49.927Z,15.64
2018-07-02T04:41:30.508Z,15.61
2018-07-02T04:42:11.045Z,15.57
2018-07-02T04:42:51.595Z,15.64
2018-07-02T04:43:32.300Z,15.62
2018-07-02T04:44:12.854Z,15.67
2018-07-02T04:44:53.607Z,15.8
2018-07-02T04:45:34.171Z,15.92
2018-07-02T04:46:14.730Z,15.83
2018-07-02T04:46:55.321Z,15.97
2018-07-02T04:47:35.884Z,15.97
2018-07-02T04:48:16.437Z,15.98
2018-07-02T04:48:57.026Z,15.97
2018-07-02T04:49:37.593Z,15.97
2018-07-02T04:50:18.145Z,16
2018-07-02T04:50:58.711Z,15.98
2018-07-02T04:51:39.276Z,16.08
2018-07-02T04:52:19.828Z,16.08
2018-07-02T04:53:00.395Z,16.13
2018-07-02T04:53:40.956Z,16.08
2018-07-02T04:54:21.719Z,16.15
2018-07-02T04:55:02.553Z,16.15
2018-07-02T04:55:44.135Z,16.2
2018-07-02T04:56:25.824Z,16.28
2018-07-02T04:57:06.846Z,16.31
2018-07-02T04:57:47.910Z,16.32
2018-07-02T04:58:29.815Z,16.41
2018-07-02T04:59:11.048Z,16.39
2018-07-02T04:59:52.156Z,16.38
2018-07-02T05:00:33.179Z,16.49
2018-07-02T05:01:14.192Z,16.46
2018-07-02T05:02:00.724Z,16.46
2018-07-02T05:02:42.095Z,16.54
2018-07-02T05:03:23.190Z,16.53
2018-07-02T05:04:04.399Z,16.54
2018-07-02T05:04:46.472Z,16.54
2018-07-02T05:05:27.547Z,16.65
2018-07-02T05:06:08.685Z,16.58
2018-07-02T05:06:50.828Z,16.6
2018-07-02T05:07:31.921Z,16.61
2018-07-02T05:08:13.864Z,16.61
2018-07-02T05:08:54.988Z,16.68
2018-07-02T05:09:35.978Z,16.75
2018-07-02T05:10:17.847Z,16.76
2018-07-02T05:10:58.953Z,16.81
2018-07-02T05:11:40.891Z,16.78
2018-07-02T05:12:22.001Z,16.78
2018-07-02T05:13:03.069Z,16.75
2018-07-02T05:13:44.079Z,16.81
2018-07-02T05:14:25.090Z,16.87
2018-07-02T05:15:06.227Z,16.96
2018-07-02T05:15:47.287Z,16.91
2018-07-02T05:16:28.416Z,16.96
2018-07-02T05:17:10.438Z,17.01
2018-07-02T05:17:52.601Z,17.01
2018-07-02T05:18:33.648Z,16.94
2018-07-02T05:19:14.798Z,17.04
2018-07-02T05:19:55.995Z,17.08
2018-07-02T05:20:37.090Z,17.04
2018-07-02T05:21:18.241Z,17.04
2018-07-02T05:21:59.278Z,17.08
2018-07-02T05:22:40.204Z,17.02
2018-07-02T05:23:21.254Z,17.05
2018-07-02T05:24:02.399Z,17.02
2018-07-02T05:24:43.491Z,17.09
2018-07-02T05:25:24.623Z,17.2
2018-07-02T05:26:05.570Z,17.22
2018-07-02T05:26:46.675Z,17.22
2018-07-02T05:27:27.778Z,17.34
2018-07-02T05:28:09.803Z,17.41
2018-07-02T05:28:50.986Z,17.46
2018-07-02T05:29:32.106Z,17.56
2018-07-02T05:30:13.806Z,17.67
2018-07-02T05:30:54.867Z,17.71
2018-07-02T05:31:35.753Z,17.8
2018-07-02T05:32:16.734Z,17.79
2018-07-02T05:32:57.681Z,17.74
2018-07-02T05:33:39.481Z,17.89
2018-07-02T05:34:20.512Z,17.87
2018-07-02T05:35:02.540Z,18.01
2018-07-02T05:35:43.546Z,18.15
2018-07-02T05:36:24.601Z,18.2
2018-07-02T05:37:05.450Z,18.29
2018-07-02T05:37:46.433Z,18.4
2018-07-02T05:38:27.306Z,18.52
2018-07-02T05:39:08.800Z,18.53
2018-07-02T05:39:49.678Z,18.77
2018-07-02T05:40:30.716Z,18.8
2018-07-02T05:41:11.738Z,18.86
2018-07-02T05:41:53.750Z,18.95
2018-07-02T05:42:36.652Z,18.99
2018-07-02T05:43:17.572Z,19
2018-07-02T05:43:58.533Z,19.15
2018-07-02T05:44:39.483Z,19.19
2018-07-02T05:45:21.037Z,19.37
2018-07-02T05:46:02.051Z,19.37
2018-07-02T05:46:43.142Z,19.45
2018-07-02T05:47:24.162Z,19.4
2018-07-02T05:48:05.252Z,19.51
2018-07-02T05:48:46.311Z,19.54
2018-07-02T05:49:27.461Z,19.52
2018-07-02T05:50:08.455Z,19.63
2018-07-02T05:50:50.478Z,19.73
2018-07-02T05:51:31.480Z,19.71
2018-07-02T05:52:12.362Z,19.84
2018-07-02T05:52:53.616Z,19.92
2018-07-02T05:53:34.587Z,19.92
2018-07-02T05:54:15.653Z,20.06
2018-07-02T05:54:56.542Z,20.14
2018-07-02T05:55:38.280Z,20.14
2018-07-02T05:56:19.341Z,20.29
2018-07-02T05:57:00.413Z,20.32
2018-07-02T05:57:41.461Z,20.4
2018-07-02T05:58:22.566Z,20.29
2018-07-02T05:59:03.911Z,20.29
2018-07-02T05:59:44.933Z,20.28
2018-07-02T06:00:26.172Z,20.28
2018-07-02T06:01:07.293Z,20.28
2018-07-02T06:01:48.438Z,20.26
2018-07-02T06:02:29.240Z,20.26
2018-07-02T06:03:10.306Z,20.24
2018-07-02T06:03:51.357Z,20.39
2018-07-02T06:04:33.133Z,20.31
2018-07-02T06:05:13.938Z,20.29
2018-07-02T06:05:55.002Z,20.36
2018-07-02T06:06:36.074Z,20.34
2018-07-02T06:07:17.302Z,20.37
2018-07-02T06:07:59.428Z,20.31
2018-07-02T06:08:41.188Z,20.41
2018-07-02T06:09:22.378Z,20.34
2018-07-02T06:10:03.548Z,20.41
2018-07-02T06:10:44.585Z,20.48
2018-07-02T06:11:25.688Z,20.56
2018-07-02T06:12:06.876Z,20.66
2018-07-02T06:12:48.110Z,20.72
2018-07-02T06:13:29.283Z,20.81
2018-07-02T06:14:10.330Z,20.9
2018-07-02T06:14:51.376Z,20.88
2018-07-02T06:15:32.132Z,20.96
2018-07-02T06:16:13.227Z,20.88
2018-07-02T06:16:54.304Z,21.03
2018-07-02T06:17:35.517Z,21.07
2018-07-02T06:18:17.284Z,21.12
2018-07-02T06:18:59.786Z,21.11
2018-07-02T06:19:40.937Z,21.15
2018-07-02T06:20:21.998Z,21.07
2018-07-02T06:21:03.137Z,21.2
2018-07-02T06:21:44.197Z,21.15
2018-07-02T06:22:25.127Z,21.12
2018-07-02T06:23:06.308Z,21.25
2018-07-02T06:23:47.485Z,21.36
2018-07-02T06:24:30.030Z,21.29
2018-07-02T06:25:11.102Z,21.52
2018-07-02T06:25:52.711Z,21.45
2018-07-02T06:26:33.835Z,21.52
2018-07-02T06:27:14.955Z,21.51
2018-07-02T06:27:56.965Z,21.43
2018-07-02T06:28:38.153Z,21.4
2018-07-02T06:29:19.240Z,21.55
2018-07-02T06:30:00.790Z,21.51
2018-07-02T06:30:42.521Z,21.5
2018-07-02T06:31:23.627Z,21.43
2018-07-02T06:32:04.592Z,21.48
2018-07-02T06:32:45.643Z,21.45
2018-07-02T06:33:26.693Z,21.43
2018-07-02T06:34:08.781Z,21.57
2018-07-02T06:34:50.408Z,21.52
2018-07-02T06:35:31.568Z,21.45
2018-07-02T06:36:12.609Z,21.42
2018-07-02T06:36:54.386Z,21.48
2018-07-02T06:37:36.102Z,21.45
2018-07-02T06:38:17.259Z,21.5
2018-07-02T06:38:58.333Z,21.43
2018-07-02T06:39:39.274Z,21.43
2018-07-02T06:40:20.352Z,21.48
2018-07-02T06:41:01.478Z,21.54
2018-07-02T06:41:42.512Z,21.54
2018-07-02T06:42:24.547Z,21.45
2018-07-02T06:43:05.660Z,21.43
2018-07-02T06:43:46.675Z,21.45
2018-07-02T06:44:27.609Z,21.46
2018-07-02T06:45:08.906Z,21.55
2018-07-02T06:45:50.050Z,21.6
2018-07-02T06:46:31.172Z,21.67
2018-07-02T06:47:12.291Z,21.61
2018-07-02T06:47:53.405Z,21.64
2018-07-02T06:48:34.660Z,21.62
2018-07-02T06:49:15.836Z,21.73
2018-07-02T06:49:56.912Z,21.83
2018-07-02T06:50:38.007Z,21.88
2018-07-02T06:51:19.139Z,21.95
2018-07-02T06:52:00.349Z,21.98
2018-07-02T06:52:41.526Z,22.04
2018-07-02T06:53:22.480Z,22.1
2018-07-02T06:54:04.012Z,22.08
2018-07-02T06:54:45.125Z,22.15
2018-07-02T06:55:26.246Z,22.17
2018-07-02T06:56:08.006Z,22.26
2018-07-02T06:56:48.833Z,22.32
2018-07-02T06:57:29.931Z,22.23
2018-07-02T06:58:11.016Z,22.33
2018-07-02T06:58:52.075Z,22.33
2018-07-02T06:59:33.236Z,22.28
2018-07-02T07:00:14.309Z,22.32
2018-07-02T07:00:55.988Z,22.28
2018-07-02T07:01:37.777Z,22.23
2018-07-02T07:02:18.874Z,22.36
2018-07-02T07:03:01.037Z,22.29
2018-07-02T07:03:42.084Z,22.41
2018-07-02T07:04:23.066Z,22.38
2018-07-02T07:05:04.181Z,22.29
2018-07-02T07:05:46.370Z,22.35
2018-07-02T07:06:27.685Z,22.3
2018-07-02T07:07:09.944Z,22.39
2018-07-02T07:07:51.047Z,22.39
2018-07-02T07:08:32.853Z,22.45
2018-07-02T07:09:13.837Z,22.47
2018-07-02T07:09:54.718Z,22.48
2018-07-02T07:10:35.794Z,22.51
2018-07-02T07:11:17.059Z,22.57
2018-07-02T07:11:58.362Z,22.62
2018-07-02T07:12:39.327Z,22.57
2018-07-02T07:13:21.223Z,22.65
2018-07-02T07:14:02.292Z,22.7
2018-07-02T07:14:43.385Z,22.75
2018-07-02T07:15:24.528Z,22.81
2018-07-02T07:16:05.366Z,22.73
2018-07-02T07:16:46.340Z,22.8
2018-07-02T07:17:27.462Z,22.91
2018-07-02T07:18:08.550Z,22.91
2018-07-02T07:18:49.916Z,22.96
2018-07-02T07:19:31.040Z,22.96
2018-07-02T07:20:12.242Z,22.87
2018-07-02T07:20:53.923Z,22.93
2018-07-02T07:21:34.967Z,22.9
2018-07-02T07:22:16.072Z,22.88
2018-07-02T07:22:57.167Z,22.9
2018-07-02T07:23:38.542Z,22.93
2018-07-02T07:24:19.662Z,22.9
2018-07-02T07:25:00.740Z,22.96
2018-07-02T07:25:42.078Z,22.98
2018-07-02T07:26:24.861Z,23.02
2018-07-02T07:27:06.083Z,23.12
2018-07-02T07:27:47.308Z,23.1
2018-07-02T07:28:29.225Z,23.1
2018-07-02T07:29:10.306Z,23.21
2018-07-02T07:29:52.183Z,23.2
2018-07-02T07:30:33.309Z,23.32
2018-07-02T07:31:16.262Z,23.41
2018-07-02T07:31:57.241Z,23.37
2018-07-02T07:32:38.363Z,23.34
2018-07-02T07:33:19.491Z,23.37
2018-07-02T07:34:00.674Z,23.36
2018-07-02T07:34:41.838Z,23.36
2018-07-02T07:35:23.773Z,23.41
2018-07-02T07:36:04.892Z,23.34
2018-07-02T07:36:46.085Z,23.47
2018-07-02T07:37:27.072Z,23.4
2018-07-02T07:38:07.892Z,23.46
2018-07-02T07:38:49.049Z,23.46
2018-07-02T07:39:30.351Z,23.47
2018-07-02T07:40:12.299Z,23.37
2018-07-02T07:40:53.458Z,23.4
2018-07-02T07:41:34.679Z,23.28
2018-07-02T07:42:16.657Z,23.4
2018-07-02T07:42:57.792Z,23.34
2018-07-02T07:43:39.039Z,23.39
2018-07-02T07:44:20.193Z,23.36
2018-07-02T07:45:01.421Z,23.54
2018-07-02T07:45:42.604Z,23.47
2018-07-02T07:46:23.963Z,23.59
2018-07-02T07:47:05.081Z,23.62
2018-07-02T07:47:46.235Z,23.62
2018-07-02T07:48:27.281Z,23.61
2018-07-02T07:49:08.395Z,23.54
2018-07-02T07:49:49.348Z,23.61
2018-07-02T07:50:31.301Z,23.59
2018-07-02T07:51:12.452Z,23.69
2018-07-02T07:51:54.191Z,23.74
2018-07-02T07:52:35.401Z,23.76
2018-07-02T07:53:16.751Z,23.8
2018-07-02T07:53:57.893Z,23.83
2018-07-02T07:54:39.165Z,23.91
2018-07-02T07:55:20.350Z,23.99
2018-07-02T07:56:01.489Z,23.95
2018-07-02T07:56:42.713Z,24.01
2018-07-02T07:57:23.981Z,24.03
2018-07-02T07:58:05.210Z,23.98
2018-07-02T07:58:46.459Z,23.96
2018-07-02T07:59:27.563Z,23.87
2018-07-02T08:00:08.602Z,23.77
2018-07-02T08:00:50.191Z,23.81
2018-07-02T08:01:31.950Z,23.8
2018-07-02T08:02:12.942Z,23.71
2018-07-02T08:02:54.180Z,23.61
2018-07-02T08:03:35.521Z,23.56
2018-07-02T08:04:16.712Z,23.63
2018-07-02T08:04:57.921Z,23.61
2018-07-02T08:05:38.964Z,23.56
2018-07-02T08:06:20.063Z,23.61
2018-07-02T08:07:01.144Z,23.48
2018-07-02T08:07:42.430Z,23.56
2018-07-02T08:08:23.446Z,23.54
2018-07-02T08:09:04.438Z,23.51
2018-07-02T08:09:45.533Z,23.48
2018-07-02T08:10:26.627Z,23.48
2018-07-02T08:11:07.550Z,23.59
2018-07-02T08:11:49.422Z,23.59
2018-07-02T08:12:30.505Z,23.62
2018-07-02T08:13:11.475Z,23.63
2018-07-02T08:13:52.601Z,23.71
2018-07-02T08:14:33.841Z,23.71
2018-07-02T08:15:15.000Z,23.74
2018-07-02T08:15:56.078Z,23.71
2018-07-02T08:16:37.153Z,23.73
2018-07-02T08:17:18.324Z,23.71
2018-07-02T08:17:59.460Z,23.73
2018-07-02T08:18:40.660Z,23.76
2018-07-02T08:19:21.724Z,23.76
2018-07-02T08:20:02.951Z,23.71
2018-07-02T08:20:43.991Z,23.71
2018-07-02T08:21:26.204Z,23.76
2018-07-02T08:22:07.346Z,23.76
2018-07-02T08:22:48.291Z,23.76
2018-07-02T08:23:30.496Z,23.66
2018-07-02T08:24:11.590Z,23.56
2018-07-02T08:24:52.588Z,23.59
2018-07-02T08:25:33.719Z,23.54
2018-07-02T08:26:15.481Z,23.46
2018-07-02T08:26:56.637Z,23.46
2018-07-02T08:27:37.779Z,23.32
2018-07-02T08:28:18.955Z,23.39
2018-07-02T08:29:00.236Z,23.5
2018-07-02T08:29:41.421Z,23.39
2018-07-02T08:30:22.713Z,23.5
2018-07-02T08:31:04.496Z,23.59
2018-07-02T08:31:45.627Z,23.56
2018-07-02T08:32:26.750Z,23.58
2018-07-02T08:33:07.801Z,23.54
2018-07-02T08:33:49.697Z,23.56
2018-07-02T08:34:30.657Z,23.56
2018-07-02T08:35:11.734Z,23.65
2018-07-02T08:35:52.757Z,23.66
2018-07-02T08:36:33.892Z,23.69
2018-07-02T08:37:15.720Z,23.62
2018-07-02T08:37:57.279Z,23.58
2018-07-02T08:38:38.314Z,23.63
2018-07-02T08:39:20.339Z,23.62
2018-07-02T08:40:01.555Z,23.56
2018-07-02T08:40:42.647Z,23.62
2018-07-02T08:41:23.745Z,23.55
2018-07-02T08:42:04.960Z,23.62
2018-07-02T08:42:45.976Z,23.54
2018-07-02T08:43:27.160Z,23.56
2018-07-02T08:44:09.918Z,23.61
2018-07-02T08:44:51.016Z,23.61
2018-07-02T08:45:31.940Z,23.48
2018-07-02T08:46:13.100Z,23.51
2018-07-02T08:46:54.226Z,23.54
2018-07-02T08:47:35.377Z,23.5
2018-07-02T08:48:16.431Z,23.51
2018-07-02T08:48:57.525Z,23.51